WXM80 ListenWXM80 Stop

You find our weather info also at:

UK Metoffice

WeatherCloud

Weather Underground

Northeastern Weather Network

AWEKAS

Citizen Weather Observer Program (CWOP)

HAMweather, WeatherForYou, PWS Weather


Weather Underground History page Text

Daily Summary for January 11, 2018 Units:  Both    English   Metric
« Previous Day
Next Day »
Daily Weekly Monthly Yearly Custom
  High: Low: Average:
Temperature: 45.1 °F /  7.3 °C 33.0 °F /  0.6 °C 38.8 °F /  3.8 °C
Dew Point: 44.3 °F /  6.8 °C 30.7 °F /  -0.7 °C 36.2 °F /  2.3 °C
Humidity: 97 % 81 % 90 %
Wind Speed: 2.5 mph /  4 km/h - 0.2 mph /  0.3 km/h
Wind Gust: 4.6 mph /  7.4 km/h - -
Wind:- - West
Pressure: 30.43 in /  1030.4 hPa 29.97 in /  1014.8 hPa -
Precipitation: 0.00 in /  0 mm    
Historical Graphs
 
 
Tabular Data for January 11, 2018
Time Temperature Dew Point Pressure Wind Wind Speed Wind Gust Humidity Rainfall Rate (Hourly)
00:07 37.5 °F /  3.1 °C 34.6 °F /  1.4 °C 30.41 in /  1029.7 hPa Calm     89 % 0.00 in /  0 mm
00:16 37.5 °F /  3.1 °C 34.8 °F /  1.6 °C 30.15 in /  1020.9 hPa Calm     90 % 0.00 in /  0 mm
00:22 37.5 °F /  3.1 °C 34.8 °F /  1.6 °C 30.40 in /  1029.3 hPa Calm     90 % 0.00 in /  0 mm
00:27 37.5 °F /  3.1 °C 34.8 °F /  1.6 °C 30.40 in /  1029.3 hPa Calm     90 % 0.00 in /  0 mm
00:33 37.4 °F /  3 °C 34.7 °F /  1.5 °C 30.40 in /  1029.3 hPa Calm     90 % 0.00 in /  0 mm
00:38 37.4 °F /  3 °C 34.7 °F /  1.5 °C 30.40 in /  1029.3 hPa Calm     90 % 0.00 in /  0 mm
00:46 37.2 °F /  2.9 °C 34.5 °F /  1.4 °C 30.14 in /  1020.5 hPa Calm     90 % 0.00 in /  0 mm
00:51 37.1 °F /  2.8 °C 34.4 °F /  1.3 °C 30.39 in /  1029 hPa Calm     90 % 0.00 in /  0 mm
00:59 36.9 °F /  2.7 °C 34.0 °F /  1.1 °C 30.15 in /  1020.9 hPa WSW 1.9 mph /  3.1 km/h 3.5 mph /  5.6 km/h 89 % 0.00 in /  0 mm
01:07 36.6 °F /  2.6 °C 33.9 °F /  1.1 °C 30.40 in /  1029.3 hPa Calm     90 % 0.00 in /  0 mm
01:12 36.5 °F /  2.5 °C 33.8 °F /  1 °C 30.40 in /  1029.3 hPa Calm     90 % 0.00 in /  0 mm
01:18 36.3 °F /  2.4 °C 33.6 °F /  0.9 °C 30.40 in /  1029.3 hPa Calm     90 % 0.00 in /  0 mm
01:29 36.0 °F /  2.2 °C 33.4 °F /  0.8 °C 30.15 in /  1020.9 hPa Calm     90 % 0.00 in /  0 mm
01:34 35.9 °F /  2.2 °C 33.3 °F /  0.7 °C 30.40 in /  1029.3 hPa Calm     90 % 0.00 in /  0 mm
01:39 35.7 °F /  2.1 °C 33.1 °F /  0.6 °C 30.16 in /  1021.2 hPa Calm     90 % 0.00 in /  0 mm
01:56 35.3 °F /  1.8 °C 32.4 °F /  0.2 °C 30.40 in /  1029.3 hPa Calm     89 % 0.00 in /  0 mm
02:02 35.1 °F /  1.7 °C 32.5 °F /  0.3 °C 30.40 in /  1029.3 hPa Calm     90 % 0.00 in /  0 mm
02:07 35.0 °F /  1.7 °C 32.4 °F /  0.2 °C 30.40 in /  1029.3 hPa Calm     90 % 0.00 in /  0 mm
02:15 34.8 °F /  1.6 °C 32.2 °F /  0.1 °C 30.39 in /  1029 hPa Calm     90 % 0.00 in /  0 mm
02:21 34.8 °F /  1.6 °C 32.2 °F /  0.1 °C 30.40 in /  1029.3 hPa Calm     90 % 0.00 in /  0 mm
02:27 34.7 °F /  1.5 °C 32.1 °F /  0.1 °C 30.39 in /  1029 hPa Calm     90 % 0.00 in /  0 mm
02:32 34.6 °F /  1.4 °C 32.0 °F /  0 °C 30.15 in /  1020.9 hPa Calm     90 % 0.00 in /  0 mm
02:39 34.6 °F /  1.4 °C 32.0 °F /  0 °C 30.39 in /  1029 hPa Calm     90 % 0.00 in /  0 mm
02:46 34.4 °F /  1.3 °C 31.8 °F /  -0.1 °C 30.39 in /  1029 hPa Calm     90 % 0.00 in /  0 mm
02:54 34.2 °F /  1.2 °C 31.6 °F /  -0.2 °C 30.39 in /  1029 hPa Calm     90 % 0.00 in /  0 mm
03:00 34.1 °F /  1.2 °C 31.5 °F /  -0.3 °C 30.39 in /  1029 hPa Calm     90 % 0.00 in /  0 mm
03:06 33.9 °F /  1.1 °C 31.3 °F /  -0.4 °C 30.38 in /  1028.7 hPa Calm     90 % 0.00 in /  0 mm
03:12 33.7 °F /  0.9 °C 31.1 °F /  -0.5 °C 30.38 in /  1028.7 hPa Calm     90 % 0.00 in /  0 mm
03:25 33.4 °F /  0.8 °C 30.8 °F /  -0.7 °C 30.13 in /  1020.2 hPa Calm     90 % 0.00 in /  0 mm
03:37 33.2 °F /  0.7 °C 30.9 °F /  -0.6 °C 30.13 in /  1020.2 hPa Calm     91 % 0.00 in /  0 mm
03:47 33.1 °F /  0.6 °C 30.8 °F /  -0.7 °C 30.38 in /  1028.7 hPa Calm     91 % 0.00 in /  0 mm
03:53 33.0 °F /  0.6 °C 30.7 °F /  -0.7 °C 30.38 in /  1028.7 hPa Calm     91 % 0.00 in /  0 mm
04:16 33.2 °F /  0.7 °C 31.1 °F /  -0.5 °C 30.38 in /  1028.7 hPa Calm     92 % 0.00 in /  0 mm
04:21 33.3 °F /  0.7 °C 31.2 °F /  -0.4 °C 30.38 in /  1028.7 hPa Calm     92 % 0.00 in /  0 mm
04:26 33.3 °F /  0.7 °C 31.2 °F /  -0.4 °C 30.38 in /  1028.7 hPa Calm     92 % 0.00 in /  0 mm
04:33 33.4 °F /  0.8 °C 31.3 °F /  -0.4 °C 30.13 in /  1020.2 hPa Calm     92 % 0.00 in /  0 mm
04:38 33.4 °F /  0.8 °C 31.3 °F /  -0.4 °C 30.38 in /  1028.7 hPa Calm     92 % 0.00 in /  0 mm
04:45 33.4 °F /  0.8 °C 31.6 °F /  -0.2 °C 30.38 in /  1028.7 hPa Calm     93 % 0.00 in /  0 mm
04:50 33.5 °F /  0.8 °C 31.7 °F /  -0.2 °C 30.38 in /  1028.7 hPa Calm     93 % 0.00 in /  0 mm
04:56 33.6 °F /  0.9 °C 31.8 °F /  -0.1 °C 30.38 in /  1028.7 hPa Calm     93 % 0.00 in /  0 mm
05:07 33.6 °F /  0.9 °C 31.8 °F /  -0.1 °C 30.38 in /  1028.7 hPa Calm     93 % 0.00 in /  0 mm
05:20 33.8 °F /  1 °C 32.0 °F /  0 °C 30.38 in /  1028.7 hPa Calm     93 % 0.00 in /  0 mm
05:25 33.8 °F /  1 °C 32.0 °F /  0 °C 30.39 in /  1029 hPa Calm     93 % 0.00 in /  0 mm
05:30 33.9 °F /  1.1 °C 32.1 °F /  0.1 °C 30.39 in /  1029 hPa Calm     93 % 0.00 in /  0 mm
05:39 33.9 °F /  1.1 °C 32.1 °F /  0.1 °C 30.39 in /  1029 hPa Calm     93 % 0.00 in /  0 mm
05:44 33.9 °F /  1.1 °C 32.1 °F /  0.1 °C 30.39 in /  1029 hPa Calm     93 % 0.00 in /  0 mm
05:48 34.0 °F /  1.1 °C 32.2 °F /  0.1 °C 30.39 in /  1029 hPa Calm     93 % 0.00 in /  0 mm
06:04 34.1 °F /  1.2 °C 32.3 °F /  0.2 °C 30.39 in /  1029 hPa Calm     93 % 0.00 in /  0 mm
06:09 34.2 °F /  1.2 °C 32.7 °F /  0.4 °C 30.39 in /  1029 hPa Calm     94 % 0.00 in /  0 mm
06:14 34.3 °F /  1.3 °C 32.8 °F /  0.4 °C 30.39 in /  1029 hPa Calm     94 % 0.00 in /  0 mm
06:23 34.4 °F /  1.3 °C 32.9 °F /  0.5 °C 30.39 in /  1029 hPa Calm     94 % 0.00 in /  0 mm
06:40 34.6 °F /  1.4 °C 33.1 °F /  0.6 °C 30.39 in /  1029 hPa Calm     94 % 0.00 in /  0 mm
06:46 34.7 °F /  1.5 °C 33.2 °F /  0.7 °C 30.39 in /  1029 hPa Calm     94 % 0.00 in /  0 mm
07:09 35.2 °F /  1.8 °C 33.6 °F /  0.9 °C 30.13 in /  1020.2 hPa Calm     94 % 0.00 in /  0 mm
07:17 35.3 °F /  1.8 °C 33.7 °F /  0.9 °C 30.39 in /  1029 hPa Calm     94 % 0.00 in /  0 mm
07:23 35.4 °F /  1.9 °C 33.8 °F /  1 °C 30.39 in /  1029 hPa Calm     94 % 0.00 in /  0 mm
07:28 35.5 °F /  1.9 °C 33.9 °F /  1.1 °C 30.39 in /  1029 hPa Calm     94 % 0.00 in /  0 mm
07:34 35.5 °F /  1.9 °C 33.9 °F /  1.1 °C 30.39 in /  1029 hPa Calm     94 % 0.00 in /  0 mm
07:39 35.6 °F /  2 °C 34.0 °F /  1.1 °C 30.38 in /  1028.7 hPa Calm     94 % 0.00 in /  0 mm
07:44 35.7 °F /  2.1 °C 34.1 °F /  1.2 °C 30.38 in /  1028.7 hPa Calm     94 % 0.00 in /  0 mm
07:49 35.8 °F /  2.1 °C 34.2 °F /  1.2 °C 30.39 in /  1029 hPa Calm     94 % 0.00 in /  0 mm
07:54 35.9 °F /  2.2 °C 34.3 °F /  1.3 °C 30.39 in /  1029 hPa Calm   1.2 mph /  1.9 km/h 94 % 0.00 in /  0 mm
08:09 36.4 °F /  2.4 °C 34.8 °F /  1.6 °C 30.39 in /  1029 hPa Calm     94 % 0.00 in /  0 mm
08:14 36.5 °F /  2.5 °C 34.9 °F /  1.6 °C 30.39 in /  1029 hPa Calm     94 % 0.00 in /  0 mm
08:30 37.2 °F /  2.9 °C 35.6 °F /  2 °C 30.40 in /  1029.3 hPa Calm     94 % 0.00 in /  0 mm
08:36 37.4 °F /  3 °C 35.8 °F /  2.1 °C 30.40 in /  1029.3 hPa Calm     94 % 0.00 in /  0 mm
08:41 37.8 °F /  3.2 °C 36.5 °F /  2.5 °C 30.40 in /  1029.3 hPa Calm     95 % 0.00 in /  0 mm
08:47 38.1 °F /  3.4 °C 36.5 °F /  2.5 °C 30.40 in /  1029.3 hPa Calm     94 % 0.00 in /  0 mm
08:57 38.7 °F /  3.7 °C 37.1 °F /  2.8 °C 30.42 in /  1030 hPa Calm     94 % 0.00 in /  0 mm
09:07 39.3 °F /  4.1 °C 37.7 °F /  3.2 °C 30.17 in /  1021.6 hPa North 0.4 mph /  0.6 km/h 3.5 mph /  5.6 km/h 94 % 0.00 in /  0 mm
09:15 39.2 °F /  4 °C 37.1 °F /  2.8 °C 30.17 in /  1021.6 hPa North 1.2 mph /  1.9 km/h 2.3 mph /  3.7 km/h 92 % 0.00 in /  0 mm
09:22 39.2 °F /  4 °C 36.8 °F /  2.7 °C 30.43 in /  1030.4 hPa Calm   1.2 mph /  1.9 km/h 91 % 0.00 in /  0 mm
09:27 39.1 °F /  3.9 °C 36.4 °F /  2.4 °C 30.43 in /  1030.4 hPa Calm     90 % 0.00 in /  0 mm
09:32 39.1 °F /  3.9 °C 36.4 °F /  2.4 °C 30.43 in /  1030.4 hPa NNW 0.2 mph /  0.3 km/h 1.2 mph /  1.9 km/h 90 % 0.00 in /  0 mm
09:39 39.1 °F /  3.9 °C 36.4 °F /  2.4 °C 30.18 in /  1021.9 hPa NNW 0.3 mph /  0.5 km/h 2.0 mph /  3.2 km/h 90 % 0.00 in /  0 mm
09:44 39.1 °F /  3.9 °C 36.4 °F /  2.4 °C 30.18 in /  1021.9 hPa NNW 0.7 mph /  1.1 km/h 2.3 mph /  3.7 km/h 90 % 0.00 in /  0 mm
09:58 39.0 °F /  3.9 °C 36.0 °F /  2.2 °C 30.43 in /  1030.4 hPa NNW 0.3 mph /  0.5 km/h 1.2 mph /  1.9 km/h 89 % 0.00 in /  0 mm
10:03 39.0 °F /  3.9 °C 36.0 °F /  2.2 °C 30.18 in /  1021.9 hPa NNW 0.2 mph /  0.3 km/h 1.2 mph /  1.9 km/h 89 % 0.00 in /  0 mm
10:10 39.1 °F /  3.9 °C 36.1 °F /  2.3 °C 30.18 in /  1021.9 hPa Calm     89 % 0.00 in /  0 mm
10:16 39.0 °F /  3.9 °C 36.0 °F /  2.2 °C 30.43 in /  1030.4 hPa Calm     89 % 0.00 in /  0 mm
10:21 39.0 °F /  3.9 °C 36.0 °F /  2.2 °C 30.43 in /  1030.4 hPa Calm     89 % 0.00 in /  0 mm
10:30 39.1 °F /  3.9 °C 36.1 °F /  2.3 °C 30.17 in /  1021.6 hPa Calm   1.2 mph /  1.9 km/h 89 % 0.00 in /  0 mm
10:36 39.1 °F /  3.9 °C 36.1 °F /  2.3 °C 30.42 in /  1030 hPa Calm     89 % 0.00 in /  0 mm
10:41 39.2 °F /  4 °C 36.2 °F /  2.3 °C 30.42 in /  1030 hPa Calm     89 % 0.00 in /  0 mm
10:46 39.3 °F /  4.1 °C 36.3 °F /  2.4 °C 30.41 in /  1029.7 hPa Calm     89 % 0.00 in /  0 mm
10:59 39.7 °F /  4.3 °C 36.7 °F /  2.6 °C 30.41 in /  1029.7 hPa Calm     89 % 0.00 in /  0 mm
11:06 39.9 °F /  4.4 °C 36.9 °F /  2.7 °C 30.41 in /  1029.7 hPa Calm     89 % 0.00 in /  0 mm
11:15 40.4 °F /  4.7 °C 37.7 °F /  3.2 °C 30.40 in /  1029.3 hPa Calm     90 % 0.00 in /  0 mm
11:20 40.7 °F /  4.8 °C 38.0 °F /  3.3 °C 30.40 in /  1029.3 hPa Calm     90 % 0.00 in /  0 mm
11:29 41.4 °F /  5.2 °C 38.7 °F /  3.7 °C 30.39 in /  1029 hPa Calm     90 % 0.00 in /  0 mm
11:37 42.1 °F /  5.6 °C 39.4 °F /  4.1 °C 30.39 in /  1029 hPa Calm     90 % 0.00 in /  0 mm
11:43 42.5 °F /  5.8 °C 39.8 °F /  4.3 °C 30.13 in /  1020.2 hPa Calm     90 % 0.00 in /  0 mm
11:52 43.5 °F /  6.4 °C 39.9 °F /  4.4 °C 30.38 in /  1028.7 hPa NNW 0.1 mph /  0.2 km/h 1.2 mph /  1.9 km/h 87 % 0.00 in /  0 mm
11:57 43.8 °F /  6.6 °C 39.6 °F /  4.2 °C 30.13 in /  1020.2 hPa Calm   1.2 mph /  1.9 km/h 85 % 0.00 in /  0 mm
12:04 43.9 °F /  6.6 °C 39.1 °F /  3.9 °C 30.38 in /  1028.7 hPa Calm     83 % 0.00 in /  0 mm
12:09 43.9 °F /  6.6 °C 38.8 °F /  3.8 °C 30.37 in /  1028.3 hPa Calm   1.0 mph /  1.6 km/h 82 % 0.00 in /  0 mm
12:17 43.8 °F /  6.6 °C 38.7 °F /  3.7 °C 30.37 in /  1028.3 hPa NNW 0.1 mph /  0.2 km/h 2.3 mph /  3.7 km/h 82 % 0.00 in /  0 mm
12:23 43.8 °F /  6.6 °C 38.7 °F /  3.7 °C 30.12 in /  1019.9 hPa Calm   1.2 mph /  1.9 km/h 82 % 0.00 in /  0 mm
12:28 43.8 °F /  6.6 °C 38.7 °F /  3.7 °C 30.11 in /  1019.5 hPa NNW 0.2 mph /  0.3 km/h 1.2 mph /  1.9 km/h 82 % 0.00 in /  0 mm
12:33 43.7 °F /  6.5 °C 38.6 °F /  3.7 °C 30.36 in /  1028 hPa NNW 0.2 mph /  0.3 km/h 1.2 mph /  1.9 km/h 82 % 0.00 in /  0 mm
12:46 43.5 °F /  6.4 °C 38.1 °F /  3.4 °C 30.36 in /  1028 hPa WNW 1.2 mph /  1.9 km/h 2.3 mph /  3.7 km/h 81 % 0.00 in /  0 mm
12:54 43.4 °F /  6.3 °C 38.0 °F /  3.3 °C 30.36 in /  1028 hPa Calm   1.2 mph /  1.9 km/h 81 % 0.00 in /  0 mm
12:59 43.4 °F /  6.3 °C 38.0 °F /  3.3 °C 30.10 in /  1019.2 hPa Calm   1.2 mph /  1.9 km/h 81 % 0.00 in /  0 mm
13:04 43.2 °F /  6.2 °C 37.8 °F /  3.2 °C 30.35 in /  1027.7 hPa WNW 0.2 mph /  0.3 km/h 2.3 mph /  3.7 km/h 81 % 0.00 in /  0 mm
13:12 42.9 °F /  6.1 °C 37.5 °F /  3.1 °C 30.35 in /  1027.7 hPa Calm   1.2 mph /  1.9 km/h 81 % 0.00 in /  0 mm
13:19 42.7 °F /  5.9 °C 37.6 °F /  3.1 °C 30.35 in /  1027.7 hPa NW 0.2 mph /  0.3 km/h 2.3 mph /  3.7 km/h 82 % 0.00 in /  0 mm
13:24 42.6 °F /  5.9 °C 37.5 °F /  3.1 °C 30.10 in /  1019.2 hPa Calm   1.2 mph /  1.9 km/h 82 % 0.00 in /  0 mm
13:38 42.2 °F /  5.7 °C 37.4 °F /  3 °C 30.35 in /  1027.7 hPa NNW 0.7 mph /  1.1 km/h 2.3 mph /  3.7 km/h 83 % 0.00 in /  0 mm
13:46 41.9 °F /  5.5 °C 37.1 °F /  2.8 °C 30.35 in /  1027.7 hPa NNW 0.3 mph /  0.5 km/h 1.2 mph /  1.9 km/h 83 % 0.00 in /  0 mm
13:52 41.8 °F /  5.4 °C 37.3 °F /  2.9 °C 30.35 in /  1027.7 hPa Calm   1.2 mph /  1.9 km/h 84 % 0.00 in /  0 mm
13:57 41.7 °F /  5.4 °C 37.2 °F /  2.9 °C 30.35 in /  1027.7 hPa Calm   1.2 mph /  1.9 km/h 84 % 0.00 in /  0 mm
14:03 41.6 °F /  5.3 °C 37.1 °F /  2.8 °C 30.35 in /  1027.7 hPa NNW 0.7 mph /  1.1 km/h 2.3 mph /  3.7 km/h 84 % 0.00 in /  0 mm
14:08 41.4 °F /  5.2 °C 37.2 °F /  2.9 °C 30.35 in /  1027.7 hPa NNW 0.7 mph /  1.1 km/h 1.2 mph /  1.9 km/h 85 % 0.00 in /  0 mm
14:17 41.3 °F /  5.2 °C 37.1 °F /  2.8 °C 30.35 in /  1027.7 hPa NNW 0.2 mph /  0.3 km/h 1.2 mph /  1.9 km/h 85 % 0.00 in /  0 mm
14:41 41.2 °F /  5.1 °C 37.3 °F /  2.9 °C 30.35 in /  1027.7 hPa NNW 0.2 mph /  0.3 km/h 1.2 mph /  1.9 km/h 86 % 0.00 in /  0 mm
14:46 41.3 °F /  5.2 °C 37.4 °F /  3 °C 30.10 in /  1019.2 hPa Calm   1.2 mph /  1.9 km/h 86 % 0.00 in /  0 mm
14:51 41.2 °F /  5.1 °C 37.3 °F /  2.9 °C 30.35 in /  1027.7 hPa NNW 0.1 mph /  0.2 km/h 1.2 mph /  1.9 km/h 86 % 0.00 in /  0 mm
14:56 41.2 °F /  5.1 °C 37.3 °F /  2.9 °C 30.35 in /  1027.7 hPa NNW 1.1 mph /  1.8 km/h 2.3 mph /  3.7 km/h 86 % 0.00 in /  0 mm
15:08 40.9 °F /  4.9 °C 37.0 °F /  2.8 °C 30.35 in /  1027.7 hPa Calm     86 % 0.00 in /  0 mm
15:15 40.9 °F /  4.9 °C 37.0 °F /  2.8 °C 30.35 in /  1027.7 hPa Calm   2.3 mph /  3.7 km/h 86 % 0.00 in /  0 mm
15:21 40.8 °F /  4.9 °C 36.9 °F /  2.7 °C 30.10 in /  1019.2 hPa Calm     86 % 0.00 in /  0 mm
15:27 40.8 °F /  4.9 °C 37.2 °F /  2.9 °C 30.10 in /  1019.2 hPa Calm     87 % 0.00 in /  0 mm
15:32 40.7 °F /  4.8 °C 37.1 °F /  2.8 °C 30.35 in /  1027.7 hPa NNW 0.4 mph /  0.6 km/h 1.2 mph /  1.9 km/h 87 % 0.00 in /  0 mm
15:37 40.6 °F /  4.8 °C 37.0 °F /  2.8 °C 30.35 in /  1027.7 hPa Calm     87 % 0.00 in /  0 mm
15:53 40.6 °F /  4.8 °C 37.0 °F /  2.8 °C 30.10 in /  1019.2 hPa Calm     87 % 0.00 in /  0 mm
15:58 40.5 °F /  4.7 °C 36.9 °F /  2.7 °C 30.36 in /  1028 hPa Calm     87 % 0.00 in /  0 mm
16:03 40.5 °F /  4.7 °C 37.2 °F /  2.9 °C 30.35 in /  1027.7 hPa Calm     88 % 0.00 in /  0 mm
16:08 40.5 °F /  4.7 °C 37.2 °F /  2.9 °C 30.10 in /  1019.2 hPa Calm     88 % 0.00 in /  0 mm
16:15 40.6 °F /  4.8 °C 37.3 °F /  2.9 °C 30.35 in /  1027.7 hPa Calm     88 % 0.00 in /  0 mm
16:23 40.6 °F /  4.8 °C 37.3 °F /  2.9 °C 30.35 in /  1027.7 hPa Calm     88 % 0.00 in /  0 mm
16:30 40.6 °F /  4.8 °C 37.3 °F /  2.9 °C 30.10 in /  1019.2 hPa Calm     88 % 0.00 in /  0 mm
16:33 40.6 °F /  4.8 °C 37.3 °F /  2.9 °C 30.10 in /  1019.2 hPa Calm     88 % 0.00 in /  0 mm
16:39 40.5 °F /  4.7 °C 37.2 °F /  2.9 °C 30.10 in /  1019.2 hPa Calm     88 % 0.00 in /  0 mm
16:52 40.3 °F /  4.6 °C 36.7 °F /  2.6 °C 30.10 in /  1019.2 hPa Calm     87 % 0.00 in /  0 mm
17:00 40.0 °F /  4.4 °C 36.4 °F /  2.4 °C 30.10 in /  1019.2 hPa Calm     87 % 0.00 in /  0 mm
17:05 39.9 °F /  4.4 °C 36.3 °F /  2.4 °C 30.10 in /  1019.2 hPa Calm     87 % 0.00 in /  0 mm
17:11 39.7 °F /  4.3 °C 35.9 °F /  2.2 °C 30.10 in /  1019.2 hPa Calm     86 % 0.00 in /  0 mm
17:16 39.6 °F /  4.2 °C 36.0 °F /  2.2 °C 30.09 in /  1018.8 hPa Calm     87 % 0.00 in /  0 mm
17:22 39.5 °F /  4.2 °C 36.0 °F /  2.2 °C 30.09 in /  1018.8 hPa Calm     87 % 0.00 in /  0 mm
17:32 39.3 °F /  4.1 °C 35.8 °F /  2.1 °C 30.09 in /  1018.8 hPa Calm     87 % 0.00 in /  0 mm
17:40 39.0 °F /  3.9 °C 35.5 °F /  1.9 °C 30.09 in /  1018.8 hPa Calm     87 % 0.00 in /  0 mm
17:43 38.9 °F /  3.8 °C 35.4 °F /  1.9 °C 30.09 in /  1018.8 hPa Calm     87 % 0.00 in /  0 mm
17:48 38.8 °F /  3.8 °C 35.3 °F /  1.8 °C 30.09 in /  1018.8 hPa Calm     87 % 0.00 in /  0 mm
17:57 38.6 °F /  3.7 °C 35.1 °F /  1.7 °C 30.08 in /  1018.5 hPa Calm     87 % 0.00 in /  0 mm
18:02 38.4 °F /  3.6 °C 35.2 °F /  1.8 °C 30.08 in /  1018.5 hPa Calm     88 % 0.00 in /  0 mm
18:07 38.3 °F /  3.5 °C 35.1 °F /  1.7 °C 30.08 in /  1018.5 hPa Calm     88 % 0.00 in /  0 mm
18:12 38.2 °F /  3.4 °C 35.0 °F /  1.7 °C 30.08 in /  1018.5 hPa Calm     88 % 0.00 in /  0 mm
18:13 38.2 °F /  3.4 °C 35.0 °F /  1.7 °C 30.08 in /  1018.5 hPa Calm     88 % 0.00 in /  0 mm
18:18 38.1 °F /  3.4 °C 35.1 °F /  1.7 °C 30.08 in /  1018.5 hPa Calm     89 % 0.00 in /  0 mm
18:23 38.0 °F /  3.3 °C 35.0 °F /  1.7 °C 30.08 in /  1018.5 hPa Calm     89 % 0.00 in /  0 mm
18:41 37.6 °F /  3.1 °C 34.7 °F /  1.5 °C 30.08 in /  1018.5 hPa Calm     89 % 0.00 in /  0 mm
18:51 37.4 °F /  3 °C 34.5 °F /  1.4 °C 30.07 in /  1018.2 hPa Calm     89 % 0.00 in /  0 mm
18:52 37.4 °F /  3 °C 34.5 °F /  1.4 °C 30.07 in /  1018.2 hPa Calm     89 % 0.00 in /  0 mm
19:04 37.2 °F /  2.9 °C 34.3 °F /  1.3 °C 30.06 in /  1017.8 hPa Calm     89 % 0.00 in /  0 mm
19:10 37.1 °F /  2.8 °C 34.4 °F /  1.3 °C 30.06 in /  1017.8 hPa Calm     90 % 0.00 in /  0 mm
19:15 37.1 °F /  2.8 °C 34.7 °F /  1.5 °C 30.05 in /  1017.5 hPa Calm     91 % 0.00 in /  0 mm
19:26 37.2 °F /  2.9 °C 35.1 °F /  1.7 °C 30.05 in /  1017.5 hPa SSW 1.0 mph /  1.6 km/h 4.0 mph /  6.4 km/h 92 % 0.00 in /  0 mm
19:39 38.7 °F /  3.7 °C 37.4 °F /  3 °C 30.04 in /  1017.2 hPa SSW 2.0 mph /  3.2 km/h 3.5 mph /  5.6 km/h 95 % 0.00 in /  0 mm
19:47 39.5 °F /  4.2 °C 38.2 °F /  3.4 °C 30.04 in /  1017.2 hPa South 0.3 mph /  0.5 km/h 2.3 mph /  3.7 km/h 95 % 0.00 in /  0 mm
19:58 40.8 °F /  4.9 °C 39.7 °F /  4.3 °C 30.03 in /  1016.8 hPa South 0.4 mph /  0.6 km/h 2.3 mph /  3.7 km/h 96 % 0.00 in /  0 mm
20:05 41.6 °F /  5.3 °C 40.5 °F /  4.7 °C 30.03 in /  1016.8 hPa SSW 0.2 mph /  0.3 km/h 1.2 mph /  1.9 km/h 96 % 0.00 in /  0 mm
20:13 42.1 °F /  5.6 °C 41.0 °F /  5 °C 30.04 in /  1017.2 hPa SSW 0.9 mph /  1.4 km/h 3.5 mph /  5.6 km/h 96 % 0.00 in /  0 mm
20:21 42.5 °F /  5.8 °C 41.5 °F /  5.3 °C 30.03 in /  1016.8 hPa Calm   1.0 mph /  1.6 km/h 96 % 0.00 in /  0 mm
20:26 43.0 °F /  6.1 °C 42.2 °F /  5.7 °C 30.03 in /  1016.8 hPa Calm   3.0 mph /  4.8 km/h 97 % 0.00 in /  0 mm
20:33 42.8 °F /  6 °C 41.7 °F /  5.4 °C 30.03 in /  1016.8 hPa NW 2.1 mph /  3.4 km/h 3.5 mph /  5.6 km/h 96 % 0.00 in /  0 mm
20:43 42.4 °F /  5.8 °C 41.3 °F /  5.2 °C 30.02 in /  1016.5 hPa Calm     96 % 0.00 in /  0 mm
20:44 42.3 °F /  5.7 °C 41.2 °F /  5.1 °C 30.02 in /  1016.5 hPa Calm     96 % 0.00 in /  0 mm
20:51 42.0 °F /  5.6 °C 40.9 °F /  4.9 °C 30.02 in /  1016.5 hPa South 2.5 mph /  4 km/h 4.6 mph /  7.4 km/h 96 % 0.00 in /  0 mm
20:56 41.8 °F /  5.4 °C 40.7 °F /  4.8 °C 30.02 in /  1016.5 hPa South 1.0 mph /  1.6 km/h 3.5 mph /  5.6 km/h 96 % 0.00 in /  0 mm
21:03 41.8 °F /  5.4 °C 40.7 °F /  4.8 °C 30.02 in /  1016.5 hPa South 2.3 mph /  3.7 km/h 3.5 mph /  5.6 km/h 96 % 0.00 in /  0 mm
21:08 42.0 °F /  5.6 °C 40.9 °F /  4.9 °C 30.01 in /  1016.1 hPa South 1.1 mph /  1.8 km/h 3.5 mph /  5.6 km/h 96 % 0.00 in /  0 mm
21:13 42.4 °F /  5.8 °C 41.6 °F /  5.3 °C 30.01 in /  1016.1 hPa South 2.2 mph /  3.5 km/h 4.6 mph /  7.4 km/h 97 % 0.00 in /  0 mm
21:18 43.2 °F /  6.2 °C 42.4 °F /  5.8 °C 30.01 in /  1016.1 hPa South 2.3 mph /  3.7 km/h 3.5 mph /  5.6 km/h 97 % 0.00 in /  0 mm
21:27 43.8 °F /  6.6 °C 43.0 °F /  6.1 °C 30.01 in /  1016.1 hPa South 1.6 mph /  2.6 km/h 3.5 mph /  5.6 km/h 97 % 0.00 in /  0 mm
21:32 44.2 °F /  6.8 °C 43.4 °F /  6.3 °C 30.01 in /  1016.1 hPa South 1.3 mph /  2.1 km/h 3.5 mph /  5.6 km/h 97 % 0.00 in /  0 mm
21:41 44.6 °F /  7 °C 43.8 °F /  6.6 °C 30.00 in /  1015.8 hPa South 1.1 mph /  1.8 km/h 3.5 mph /  5.6 km/h 97 % 0.00 in /  0 mm
21:47 44.8 °F /  7.1 °C 44.0 °F /  6.7 °C 30.01 in /  1016.1 hPa South 0.2 mph /  0.3 km/h 1.2 mph /  1.9 km/h 97 % 0.00 in /  0 mm
21:57 45.1 °F /  7.3 °C 44.3 °F /  6.8 °C 30.00 in /  1015.8 hPa Calm   1.2 mph /  1.9 km/h 97 % 0.00 in /  0 mm
22:05 44.6 °F /  7 °C 43.8 °F /  6.6 °C 30.00 in /  1015.8 hPa Calm     97 % 0.00 in /  0 mm
22:11 44.1 °F /  6.7 °C 43.0 °F /  6.1 °C 30.00 in /  1015.8 hPa Calm     96 % 0.00 in /  0 mm
22:16 43.7 °F /  6.5 °C 42.6 °F /  5.9 °C 30.00 in /  1015.8 hPa Calm     96 % 0.00 in /  0 mm
22:21 43.5 °F /  6.4 °C 42.4 °F /  5.8 °C 30.00 in /  1015.8 hPa Calm     96 % 0.00 in /  0 mm
22:28 43.2 °F /  6.2 °C 42.1 °F /  5.6 °C 29.99 in /  1015.5 hPa Calm     96 % 0.00 in /  0 mm
22:37 42.9 °F /  6.1 °C 41.8 °F /  5.4 °C 29.98 in /  1015.1 hPa Calm     96 % 0.00 in /  0 mm
22:42 42.6 °F /  5.9 °C 41.5 °F /  5.3 °C 29.98 in /  1015.1 hPa South 0.2 mph /  0.3 km/h 1.2 mph /  1.9 km/h 96 % 0.00 in /  0 mm
22:55 41.9 °F /  5.5 °C 40.6 °F /  4.8 °C 29.99 in /  1015.5 hPa Calm     95 % 0.00 in /  0 mm
23:04 41.2 °F /  5.1 °C 39.9 °F /  4.4 °C 29.99 in /  1015.5 hPa WNW 0.4 mph /  0.6 km/h 3.0 mph /  4.8 km/h 95 % 0.00 in /  0 mm
23:09 40.8 °F /  4.9 °C 39.5 °F /  4.2 °C 29.99 in /  1015.5 hPa WNW 0.9 mph /  1.4 km/h 2.3 mph /  3.7 km/h 95 % 0.00 in /  0 mm
23:22 39.8 °F /  4.3 °C 38.2 °F /  3.4 °C 29.98 in /  1015.1 hPa Calm     94 % 0.00 in /  0 mm
23:31 39.2 °F /  4 °C 37.6 °F /  3.1 °C 29.98 in /  1015.1 hPa Calm     94 % 0.00 in /  0 mm
23:38 38.7 °F /  3.7 °C 37.1 °F /  2.8 °C 29.98 in /  1015.1 hPa Calm     94 % 0.00 in /  0 mm
23:45 38.4 °F /  3.6 °C 36.8 °F /  2.7 °C 29.98 in /  1015.1 hPa Calm     94 % 0.00 in /  0 mm
23:53 38.1 °F /  3.4 °C 36.5 °F /  2.5 °C 29.97 in /  1014.8 hPa Calm     94 % 0.00 in /  0 mm
Crab Meadow Weather
Compliments of Weather Underground - 2.5 mb

Script developed by  Jim McMurry - jmcmurry@mwt.net Adapted for the template by  Wim van der Kuil - Leuven-Template.eu

Cloud Base: The cloud base is the distance from the sea level to the base of the clouds. It is estimated using the current temperature and humidity to indicate an altitude where the air could be cold enough for clouds to form. There may or may not be clouds at that altitude (or at any altitude)